»·PEaware :: GROUP628 LLBG-EPWA

GROUP628 :: LLBG-EPWA

FLIGHT INFORMATION

Flight Status: Arrived
Operator: Unknown
More flights by this operator :: More flights under this callsign
Pilot: Eilon G. (15033)
Aircraft: Unknown
(A350)
More flights by this aircraft type
Origin: LLBG Ben Gurion
Israel
Destination: EPWA Okecie
Poland
More flights between these airports :: More routes between these airports
Route: LLBG SID MERVA UB17 LCA UA28 MUT UL621 ODERO L621 LIMVI STAR EPWA
File this flight plan on PilotEdge
Remarks:
Altitude:
(Current/Filed)
39,000ft
Speed:
(Current/Filed)
280kts
Departed: 23-Apr-17 10:31 AM
Arrived: 23-Apr-17 01:32 PM
Distance/Time
Traveled:
1354nm/3:00
Distance/Time
To Go:
Arrived

Flight Plot

Page will automatically refresh every two minutes.

Flight plan parsing failed; only flown route is shown


Map Options




Map Legend


Flown Route
Filed Route
Departure Airport
Arrival Airport
Navaid (VOR, NDB)
Fix

Horizontal Profiles

Position Reports

Time Latitude Longitude Heading Altitude Ground
Speed
23-Apr-17 10:24 32.004270 34.875523 231 121ft 0kts
23-Apr-17 10:25 32.004336 34.875619 231 121ft 0kts
23-Apr-17 10:26 32.004714 34.875864 147 121ft 0kts
23-Apr-17 10:27 32.004790 34.875465 67 121ft 0kts
23-Apr-17 10:28 32.004790 34.875465 67 121ft 0kts
23-Apr-17 10:29 32.005168 34.876052 54 121ft 11kts
23-Apr-17 10:30 32.004612 34.881008 122 131ft 26kts
23-Apr-17 10:31 31.999998 34.889853 121 141ft 27kts
23-Apr-17 10:32 32.001893 34.890442 302 141ft 14kts
23-Apr-17 10:33 32.016510 34.862107 300 650ft 164kts
23-Apr-17 10:34 32.041681 34.818206 309 2659ft 183kts
23-Apr-17 10:35 32.070440 34.781617 316 4315ft 207kts
23-Apr-17 10:36 32.126868 34.725071 327 5341ft 316kts
23-Apr-17 10:37 32.204031 34.677017 343 7680ft 330kts
23-Apr-17 10:38 32.296387 34.657251 351 9428ft 358kts
23-Apr-17 10:39 32.393889 34.642393 354 11468ft 371kts
23-Apr-17 10:40 32.494337 34.624334 350 13545ft 378kts
23-Apr-17 10:41 32.594443 34.603084 350 15625ft 380kts
23-Apr-17 10:42 32.696087 34.580488 345 17736ft 377kts
23-Apr-17 10:43 32.790946 34.540198 339 19797ft 369kts
23-Apr-17 10:44 32.884587 34.500175 340 21831ft 358kts
23-Apr-17 10:45 32.974420 34.461641 340 23781ft 343kts
23-Apr-17 10:46 33.060645 34.424522 340 25128ft 340kts
23-Apr-17 10:47 33.148233 34.386854 340 26032ft 349kts
23-Apr-17 10:48 33.238341 34.348008 339 26920ft 358kts
23-Apr-17 10:49 33.331455 34.307316 339 27761ft 367kts
23-Apr-17 10:50 33.426286 34.266078 339 28551ft 376kts
23-Apr-17 10:51 33.523632 34.223715 339 29301ft 386kts
23-Apr-17 10:52 33.623976 34.179949 339 30020ft 395kts
23-Apr-17 10:53 33.725212 34.135684 339 30805ft 401kts
23-Apr-17 10:54 33.829184 34.090106 339 31567ft 407kts
23-Apr-17 10:55 33.933783 34.044131 339 32276ft 413kts
23-Apr-17 10:56 34.038750 33.997868 339 32934ft 418kts
23-Apr-17 10:57 34.146018 33.950550 340 33515ft 424kts
23-Apr-17 10:58 34.254452 33.902626 339 33965ft 433kts
23-Apr-17 10:59 34.368301 33.852085 339 33970ft 454kts
23-Apr-17 11:00 34.486447 33.799443 339 33970ft 476kts
23-Apr-17 11:01 34.611241 33.743629 339 33971ft 499kts
23-Apr-17 11:02 34.741011 33.685312 339 33970ft 516kts
23-Apr-17 11:03 34.874289 33.630061 346 33969ft 516kts
23-Apr-17 11:04 35.012578 33.603214 352 33970ft 513kts
23-Apr-17 11:05 35.147732 33.581226 352 33932ft 512kts
23-Apr-17 11:06 35.285104 33.558672 352 33970ft 513kts
23-Apr-17 11:07 35.423193 33.535836 352 33970ft 513kts
23-Apr-17 11:08 35.562385 33.512726 352 33970ft 513kts
23-Apr-17 11:09 35.700314 33.489740 352 33971ft 513kts
23-Apr-17 11:10 35.837053 33.466864 352 33970ft 513kts
23-Apr-17 11:11 35.975321 33.443653 352 33970ft 513kts
23-Apr-17 11:12 36.112076 33.420622 352 33930ft 514kts
23-Apr-17 11:13 36.249388 33.397495 352 33969ft 513kts
23-Apr-17 11:14 36.388237 33.373928 352 33970ft 513kts
23-Apr-17 11:15 36.526529 33.350336 352 33971ft 513kts
23-Apr-17 11:16 36.663647 33.326360 351 33970ft 513kts
23-Apr-17 11:17 36.801921 33.302539 351 33970ft 513kts
23-Apr-17 11:18 36.935958 33.257234 338 33969ft 513kts
23-Apr-17 11:19 37.066451 33.193886 338 33970ft 513kts
23-Apr-17 11:20 37.194291 33.131919 338 33963ft 513kts
23-Apr-17 11:21 37.325009 33.068298 338 33970ft 513kts
23-Apr-17 11:22 37.454856 33.004770 338 33970ft 513kts
23-Apr-17 11:23 37.585576 32.940568 338 33970ft 513kts
23-Apr-17 11:24 37.715507 32.876507 338 33970ft 513kts
23-Apr-17 11:25 37.846006 32.811919 338 33970ft 513kts
23-Apr-17 11:26 37.975663 32.747504 338 33970ft 513kts
23-Apr-17 11:26 38.084173 32.693406 338 33970ft 513kts
23-Apr-17 11:28 38.233958 32.618723 338 33969ft 513kts
23-Apr-17 11:29 38.363624 32.553630 338 33970ft 513kts
23-Apr-17 11:29 38.471772 32.499096 338 33971ft 513kts
23-Apr-17 11:31 38.623353 32.422354 338 33970ft 513kts
23-Apr-17 11:31 38.731878 32.367192 338 33971ft 513kts
23-Apr-17 11:33 38.880960 32.290615 337 33969ft 513kts
23-Apr-17 11:33 38.989323 32.234945 338 33970ft 513kts
23-Apr-17 11:35 39.135949 32.159580 338 33922ft 512kts
23-Apr-17 11:35 39.244366 32.103836 338 33969ft 513kts
23-Apr-17 11:37 39.395409 32.025602 338 33970ft 513kts
23-Apr-17 11:38 39.524486 31.958415 338 33970ft 513kts
23-Apr-17 11:38 39.632715 31.901865 338 33970ft 513kts
23-Apr-17 11:40 39.783769 31.822619 338 33970ft 513kts
23-Apr-17 11:40 39.891839 31.765692 338 33970ft 513kts
23-Apr-17 11:41 40.020722 31.697547 338 33970ft 513kts
23-Apr-17 11:43 40.169650 31.618619 338 33954ft 513kts
23-Apr-17 11:43 40.277377 31.561341 338 33970ft 513kts
23-Apr-17 11:45 40.428129 31.480646 338 33971ft 513kts
23-Apr-17 11:45 40.536213 31.422530 338 33971ft 513kts
23-Apr-17 11:47 40.680228 31.344762 337 33961ft 513kts
23-Apr-17 11:47 40.787729 31.285988 337 33970ft 513kts
23-Apr-17 11:48 40.917158 31.215398 337 33971ft 513kts
23-Apr-17 11:49 41.045936 31.145008 337 33970ft 513kts
23-Apr-17 11:50 41.170903 31.076599 337 33954ft 513kts
23-Apr-17 11:51 41.299530 31.005883 337 33970ft 513kts
23-Apr-17 11:52 41.428867 30.934311 337 33970ft 513kts
23-Apr-17 11:53 41.557652 30.862717 337 33970ft 513kts
23-Apr-17 11:54 41.686438 30.790806 337 33971ft 513kts
23-Apr-17 11:55 41.815724 30.718296 337 33970ft 513kts
23-Apr-17 11:56 41.943705 30.646198 337 33970ft 513kts
23-Apr-17 11:57 42.072847 30.573122 337 33970ft 513kts
23-Apr-17 11:58 42.201082 30.500470 337 33965ft 513kts
23-Apr-17 11:59 42.329176 30.427371 337 33970ft 513kts
23-Apr-17 12:00 42.458241 30.353198 337 33971ft 513kts
23-Apr-17 12:01 42.585599 30.279026 335 33969ft 513kts
23-Apr-17 12:02 42.709620 30.189212 330 33970ft 513kts
23-Apr-17 12:03 42.829900 30.096158 330 33971ft 513kts
23-Apr-17 12:04 42.950771 30.002347 330 33971ft 513kts
23-Apr-17 12:05 43.072849 29.907194 330 33971ft 513kts
23-Apr-17 12:06 43.188255 29.817171 330 33964ft 513kts
23-Apr-17 12:07 43.309954 29.721654 330 33970ft 513kts
23-Apr-17 12:08 43.430629 29.626330 330 33971ft 513kts
23-Apr-17 12:09 43.551514 29.530371 330 33971ft 513kts
23-Apr-17 12:10 43.672619 29.433781 330 33971ft 513kts
23-Apr-17 12:11 43.792197 29.337936 329 33949ft 513kts
23-Apr-17 12:12 43.913363 29.239838 329 33970ft 513kts
23-Apr-17 12:14 44.034032 29.142119 329 33971ft 513kts
23-Apr-17 12:15 44.154335 29.044527 329 33948ft 513kts
23-Apr-17 12:16 44.274788 28.946474 329 33970ft 513kts
23-Apr-17 12:17 44.395463 28.847489 329 33971ft 513kts
23-Apr-17 12:18 44.515567 28.748462 329 33970ft 513kts
23-Apr-17 12:19 44.635680 28.648941 329 33971ft 513kts
23-Apr-17 12:20 44.756407 28.548418 329 33970ft 513kts
23-Apr-17 12:21 44.875940 28.448403 329 33970ft 513kts
23-Apr-17 12:22 44.995964 28.347489 328 33969ft 513kts
23-Apr-17 12:23 45.111699 28.249184 328 33929ft 514kts
23-Apr-17 12:24 45.226586 28.151969 329 33969ft 513kts
23-Apr-17 12:25 45.345501 28.050623 328 33970ft 513kts
23-Apr-17 12:26 45.465044 27.948152 328 33970ft 513kts
23-Apr-17 12:27 45.583926 27.845729 328 33971ft 513kts
23-Apr-17 12:28 45.704219 27.741567 328 33971ft 513kts
23-Apr-17 12:29 45.822932 27.638245 328 33970ft 513kts
23-Apr-17 12:30 45.943043 27.533165 328 33970ft 513kts
23-Apr-17 12:31 46.060849 27.429581 328 33971ft 513kts
23-Apr-17 12:32 46.176043 27.328051 328 33939ft 513kts
23-Apr-17 12:33 46.294367 27.222692 328 33970ft 513kts
23-Apr-17 12:34 46.413776 27.116035 328 33971ft 513kts
23-Apr-17 12:35 46.533030 27.009013 328 33970ft 513kts
23-Apr-17 12:36 46.651355 26.902275 328 33971ft 513kts
23-Apr-17 12:37 46.770380 26.794347 328 33971ft 513kts
23-Apr-17 12:38 46.888602 26.686578 328 33971ft 513kts
23-Apr-17 12:39 47.007232 26.577863 328 33971ft 513kts
23-Apr-17 12:40 47.122712 26.471537 328 33913ft 512kts
23-Apr-17 12:41 47.241318 26.362195 328 33970ft 513kts
23-Apr-17 12:42 47.356666 26.254395 327 33969ft 513kts
23-Apr-17 12:43 47.474833 26.143619 327 33971ft 513kts
23-Apr-17 12:44 47.592375 26.032993 327 33971ft 513kts
23-Apr-17 12:45 47.710467 25.921262 327 33971ft 513kts
23-Apr-17 12:46 47.825014 25.812301 327 33971ft 513kts
23-Apr-17 12:47 47.942532 25.699906 327 33971ft 513kts
23-Apr-17 12:48 48.058411 25.588480 327 33971ft 513kts
23-Apr-17 12:49 48.173305 25.477760 327 33960ft 513kts
23-Apr-17 12:50 48.289808 25.364792 327 33970ft 513kts
23-Apr-17 12:51 48.404721 25.252011 326 33969ft 513kts
23-Apr-17 12:52 48.519384 25.139134 326 33971ft 513kts
23-Apr-17 12:53 48.635000 25.024856 326 33971ft 513kts
23-Apr-17 12:54 48.751774 24.908808 326 33971ft 513kts
23-Apr-17 12:55 48.866824 24.793832 326 33971ft 513kts
23-Apr-17 12:56 48.982258 24.677828 326 33971ft 513kts
23-Apr-17 12:57 49.097791 24.561059 326 33971ft 513kts
23-Apr-17 12:58 49.210024 24.447515 326 33968ft 513kts
23-Apr-17 12:59 49.323701 24.331442 325 33947ft 513kts
23-Apr-17 13:00 49.439659 24.211721 325 33970ft 513kts
23-Apr-17 13:01 49.554589 24.092805 326 33971ft 513kts
23-Apr-17 13:02 49.669942 23.972846 326 33971ft 513kts
23-Apr-17 13:03 49.784751 23.852764 326 33971ft 513kts
23-Apr-17 13:04 49.899191 23.732375 326 33971ft 513kts
23-Apr-17 13:05 50.012228 23.612760 326 33971ft 513kts
23-Apr-17 13:06 50.126137 23.491615 326 33918ft 514kts
23-Apr-17 13:07 50.240252 23.369997 326 33970ft 513kts
23-Apr-17 13:08 50.348380 23.253186 325 33968ft 513kts
23-Apr-17 13:09 50.463197 23.128620 325 33971ft 513kts
23-Apr-17 13:10 50.576514 23.005139 325 33971ft 513kts
23-Apr-17 13:11 50.686913 22.884087 325 33968ft 465kts
23-Apr-17 13:12 50.788611 22.771905 325 32747ft 456kts
23-Apr-17 13:13 50.889602 22.659942 325 31281ft 446kts
23-Apr-17 13:14 50.987272 22.551089 325 29829ft 436kts
23-Apr-17 13:15 51.082554 22.444221 325 28377ft 426kts
23-Apr-17 13:16 51.169042 22.347345 324 27001ft 417kts
23-Apr-17 13:17 51.224919 22.284032 324 26103ft 411kts
23-Apr-17 13:18 51.310779 22.186458 324 24715ft 403kts
23-Apr-17 13:19 51.404196 22.079990 324 23257ft 446kts
23-Apr-17 13:20 51.501937 21.968012 324 21694ft 453kts
23-Apr-17 13:21 51.600751 21.854042 324 19738ft 437kts
23-Apr-17 13:22 51.687452 21.753338 324 17858ft 390kts
23-Apr-17 13:23 51.769229 21.645575 313 15800ft 384kts
23-Apr-17 13:24 51.835924 21.530362 313 13246ft 341kts
23-Apr-17 13:25 51.894855 21.428158 313 10596ft 316kts
23-Apr-17 13:26 51.944062 21.332997 305 8075ft 302kts
23-Apr-17 13:27 51.948197 21.216396 243 5331ft 289kts
23-Apr-17 13:28 51.954775 21.107509 332 3848ft 262kts
23-Apr-17 13:29 52.015324 21.091249 350 2983ft 205kts
23-Apr-17 13:30 52.058373 21.061030 332 2529ft 168kts
23-Apr-17 13:31 52.094894 21.029360 331 1723ft 157kts
23-Apr-17 13:32 52.131133 20.997224 331 921ft 165kts
23-Apr-17 13:33 52.168836 20.964441 331 375ft 121kts
23-Apr-17 13:34 52.175562 20.960849 27 374ft 12kts
23-Apr-17 13:35 52.173137 20.964683 153 374ft 18kts
23-Apr-17 13:36 52.171682 20.968035 43 374ft 11kts
23-Apr-17 13:37 52.173284 20.968352 60 374ft 2kts
23-Apr-17 13:38 52.173305 20.968414 61 374ft 0kts
23-Apr-17 13:39 52.173305 20.968414 61 374ft 0kts
23-Apr-17 13:40 52.173305 20.968414 61 374ft 0kts
23-Apr-17 13:41 52.173305 20.968414 61 374ft 0kts

Navigation Log

Ident Type
Flight plan parsing failed, navigation log unavailable